createdAt,value
2022-10-10T00:01:32.502Z,6.90
2022-10-10T00:04:01.071Z,4.37
2022-10-10T00:06:33.116Z,3.80
2022-10-10T00:09:02.716Z,4.63
2022-10-10T00:11:31.176Z,4.27
2022-10-10T00:13:59.546Z,3.83
2022-10-10T00:16:28.043Z,5.37
2022-10-10T00:18:56.394Z,5.07
2022-10-10T00:21:24.847Z,4.10
2022-10-10T00:23:53.210Z,6.30
2022-10-10T00:26:21.707Z,4.00
2022-10-10T00:28:50.235Z,6.00
2022-10-10T00:31:18.704Z,8.47
2022-10-10T00:33:47.104Z,12.13
2022-10-10T00:36:15.526Z,7.70
2022-10-10T00:38:43.930Z,7.20
2022-10-10T00:41:12.304Z,5.43
2022-10-10T00:43:40.884Z,7.40
2022-10-10T00:46:09.882Z,4.50
2022-10-10T00:48:40.617Z,7.27
2022-10-10T00:51:11.774Z,7.10
2022-10-10T00:53:46.747Z,4.63
2022-10-10T00:56:16.044Z,5.17
2022-10-10T00:58:46.968Z,6.03
2022-10-10T01:01:15.459Z,4.13
2022-10-10T01:03:43.968Z,7.67
2022-10-10T01:06:12.326Z,4.47
2022-10-10T01:08:40.767Z,4.80
2022-10-10T01:11:22.811Z,4.27
2022-10-10T01:14:09.857Z,4.23
2022-10-10T01:16:44.940Z,9.73
2022-10-10T01:19:48.679Z,7.63
2022-10-10T01:22:22.957Z,4.10
2022-10-10T01:24:54.189Z,5.50
2022-10-10T01:27:30.267Z,4.47
2022-10-10T01:30:12.748Z,4.60
2022-10-10T01:33:04.319Z,4.37
2022-10-10T01:35:37.843Z,4.60
2022-10-10T01:38:28.158Z,6.37
2022-10-10T01:41:14.631Z,3.30
2022-10-10T01:43:42.937Z,3.70
2022-10-10T01:46:16.222Z,5.43
2022-10-10T01:48:45.768Z,4.20
2022-10-10T01:51:52.582Z,5.00
2022-10-10T01:54:36.340Z,5.10
2022-10-10T01:57:16.620Z,4.10
2022-10-10T02:00:04.758Z,5.20
2022-10-10T02:02:55.039Z,4.80
2022-10-10T02:05:26.269Z,3.37
2022-10-10T02:07:59.496Z,7.40
2022-10-10T02:10:32.823Z,8.03
2022-10-10T02:13:02.944Z,5.37
2022-10-10T02:15:39.028Z,4.47
2022-10-10T02:18:07.454Z,7.13
2022-10-10T02:20:35.864Z,4.57
2022-10-10T02:23:05.608Z,5.23
2022-10-10T02:25:36.991Z,5.37
2022-10-10T02:28:35.780Z,3.83
2022-10-10T02:31:07.814Z,4.47
2022-10-10T02:33:50.560Z,5.00
2022-10-10T02:36:19.870Z,5.90
2022-10-10T02:38:48.428Z,4.70
2022-10-10T02:41:18.253Z,6.80
2022-10-10T02:43:46.544Z,13.83
2022-10-10T02:46:15.743Z,9.17
2022-10-10T02:48:44.347Z,12.40
2022-10-10T02:51:13.188Z,8.30
2022-10-10T02:53:41.532Z,8.33
2022-10-10T02:56:09.941Z,8.90
2022-10-10T02:58:38.367Z,7.37
2022-10-10T03:01:06.801Z,11.20
2022-10-10T03:03:35.310Z,6.87
2022-10-10T03:06:03.910Z,6.47
2022-10-10T03:08:32.319Z,6.77
2022-10-10T03:11:01.850Z,6.47
2022-10-10T03:13:30.332Z,5.93
2022-10-10T03:15:58.967Z,4.23
2022-10-10T03:18:27.617Z,6.07
2022-10-10T03:20:56.697Z,4.23
2022-10-10T03:23:25.460Z,5.00
2022-10-10T03:25:54.043Z,6.90
2022-10-10T03:28:22.593Z,5.37
2022-10-10T03:30:51.137Z,6.10
2022-10-10T03:33:19.723Z,5.90
2022-10-10T03:35:48.339Z,8.20
2022-10-10T03:38:16.775Z,7.30
2022-10-10T03:40:45.218Z,8.50
2022-10-10T03:43:14.151Z,6.07
2022-10-10T03:45:44.412Z,6.97
2022-10-10T03:48:12.883Z,5.07
2022-10-10T03:50:41.296Z,6.63
2022-10-10T03:53:09.831Z,8.90
2022-10-10T03:55:42.029Z,7.53
2022-10-10T03:58:10.784Z,6.83
2022-10-10T04:00:39.309Z,5.50
2022-10-10T04:03:08.409Z,5.80
2022-10-10T04:05:37.652Z,7.00
2022-10-10T04:08:06.209Z,4.57
2022-10-10T04:10:34.548Z,4.33
2022-10-10T04:13:03.083Z,4.53
2022-10-10T04:15:32.099Z,6.13
2022-10-10T04:18:00.684Z,6.27
2022-10-10T04:20:28.986Z,4.43
2022-10-10T04:22:57.455Z,4.10
2022-10-10T04:25:25.844Z,5.13
2022-10-10T04:27:58.509Z,7.47
2022-10-10T04:30:31.882Z,10.27
2022-10-10T04:33:00.321Z,5.73
2022-10-10T04:35:29.696Z,4.73
2022-10-10T04:37:58.045Z,4.67
2022-10-10T04:40:26.986Z,4.40
2022-10-10T04:42:56.118Z,5.13
2022-10-10T04:45:26.949Z,11.57
2022-10-10T04:47:55.653Z,10.57
2022-10-10T04:50:24.245Z,5.20
2022-10-10T04:52:53.056Z,4.07
2022-10-10T04:55:21.604Z,5.63
2022-10-10T04:57:49.981Z,5.83
2022-10-10T05:00:18.448Z,7.60
2022-10-10T05:02:46.829Z,5.10
2022-10-10T05:05:15.276Z,4.97
2022-10-10T05:07:43.747Z,5.23
2022-10-10T05:10:12.218Z,6.83
2022-10-10T05:12:40.749Z,4.20
2022-10-10T05:15:09.657Z,8.80
2022-10-10T05:17:38.190Z,8.30
2022-10-10T05:20:07.191Z,7.80
2022-10-10T05:22:35.973Z,7.63
2022-10-10T05:25:04.479Z,7.90
2022-10-10T05:27:33.621Z,5.23
2022-10-10T05:30:01.982Z,9.33
2022-10-10T05:32:30.373Z,6.77
2022-10-10T05:34:58.704Z,8.53
2022-10-10T05:37:27.110Z,8.80
2022-10-10T05:39:55.556Z,8.33
2022-10-10T05:42:23.903Z,10.30
2022-10-10T05:44:52.311Z,8.80
2022-10-10T05:47:24.176Z,10.63
2022-10-10T05:49:55.260Z,13.17
2022-10-10T05:52:23.602Z,11.60
2022-10-10T05:54:51.910Z,18.10
2022-10-10T05:57:20.277Z,16.80
2022-10-10T05:59:48.781Z,15.40
2022-10-10T06:02:17.569Z,10.37
2022-10-10T06:04:46.773Z,10.93
2022-10-10T06:07:15.160Z,11.23
2022-10-10T06:09:43.612Z,10.60
2022-10-10T06:12:12.004Z,9.53
2022-10-10T06:14:41.263Z,9.87
2022-10-10T06:17:09.664Z,14.83
2022-10-10T06:19:38.053Z,13.07
2022-10-10T06:22:06.449Z,13.77
2022-10-10T06:24:35.629Z,23.00
2022-10-10T06:27:04.106Z,20.67
2022-10-10T06:29:33.287Z,24.70
2022-10-10T06:32:01.576Z,17.30
2022-10-10T06:34:29.999Z,20.63
2022-10-10T06:36:58.470Z,20.17
2022-10-10T06:39:26.998Z,21.83
2022-10-10T06:41:55.352Z,22.60
2022-10-10T06:44:23.791Z,16.63
2022-10-10T06:46:52.287Z,18.40
2022-10-10T06:49:20.643Z,18.93
2022-10-10T06:51:49.061Z,18.67
2022-10-10T06:54:17.418Z,18.20
2022-10-10T06:56:45.841Z,17.63
2022-10-10T06:59:14.055Z,16.87
2022-10-10T07:01:42.561Z,13.83
2022-10-10T07:04:12.200Z,13.20
2022-10-10T07:06:40.634Z,12.73
2022-10-10T07:09:09.060Z,10.73
2022-10-10T07:11:38.833Z,8.90
2022-10-10T07:14:07.346Z,9.93
2022-10-10T07:16:35.843Z,8.00
2022-10-10T07:19:05.440Z,7.77
2022-10-10T07:21:33.720Z,7.43
2022-10-10T07:24:02.125Z,8.43
2022-10-10T07:26:31.475Z,6.57
2022-10-10T07:28:59.809Z,7.90
2022-10-10T07:31:28.227Z,6.60
2022-10-10T07:33:56.629Z,6.50
2022-10-10T07:36:24.960Z,6.23
2022-10-10T07:38:53.502Z,6.00
2022-10-10T07:41:21.923Z,6.07
2022-10-10T07:43:54.512Z,5.40
2022-10-10T07:46:22.998Z,6.37
2022-10-10T07:48:51.318Z,5.77
2022-10-10T07:51:19.683Z,7.33
2022-10-10T07:53:48.057Z,5.50
2022-10-10T07:56:16.392Z,8.47
2022-10-10T07:58:45.452Z,7.83
2022-10-10T08:01:14.237Z,6.70
2022-10-10T08:03:43.858Z,6.53
2022-10-10T08:06:14.054Z,5.77
2022-10-10T08:08:50.779Z,7.77
2022-10-10T08:11:21.730Z,5.47
2022-10-10T08:13:50.805Z,7.23
2022-10-10T08:16:19.349Z,5.63
2022-10-10T08:18:47.776Z,4.83
2022-10-10T08:21:16.372Z,9.37
2022-10-10T08:23:44.768Z,6.05
2022-10-10T08:26:13.968Z,5.10
2022-10-10T08:28:42.687Z,7.97
2022-10-10T08:31:13.659Z,5.43
2022-10-10T08:33:43.672Z,4.50
2022-10-10T08:36:17.020Z,7.50
2022-10-10T08:38:45.446Z,6.72
2022-10-10T08:41:35.392Z,4.78
2022-10-10T08:44:17.468Z,4.80
2022-10-10T08:46:51.307Z,5.63
2022-10-10T08:49:35.893Z,4.60
2022-10-10T08:52:21.655Z,5.53
2022-10-10T08:54:51.310Z,4.75
2022-10-10T08:57:29.416Z,8.05
2022-10-10T09:00:21.855Z,4.78
2022-10-10T09:03:00.946Z,7.05
2022-10-10T09:05:41.669Z,5.40
2022-10-10T09:08:28.560Z,6.82
2022-10-10T09:10:58.977Z,5.78
2022-10-10T09:13:38.074Z,5.65
2022-10-10T09:16:37.129Z,5.88
2022-10-10T09:19:24.520Z,6.47
2022-10-10T09:21:55.566Z,5.30
2022-10-10T09:24:33.808Z,6.72
2022-10-10T09:27:06.347Z,6.65
2022-10-10T09:29:54.618Z,10.27
2022-10-10T09:32:32.024Z,8.60
2022-10-10T09:35:07.019Z,5.38
2022-10-10T09:37:47.366Z,5.38
2022-10-10T09:40:46.264Z,6.15
2022-10-10T09:43:17.774Z,5.65
2022-10-10T09:45:53.493Z,5.07
2022-10-10T09:48:24.407Z,4.78
2022-10-10T09:50:52.828Z,7.03
2022-10-10T09:53:21.355Z,4.78
2022-10-10T09:55:49.786Z,7.35
2022-10-10T09:58:36.488Z,5.35
2022-10-10T10:01:14.226Z,5.10
2022-10-10T10:03:43.898Z,4.00
2022-10-10T10:06:14.339Z,4.55
2022-10-10T10:08:46.748Z,4.45
2022-10-10T10:11:33.273Z,4.57
2022-10-10T10:14:04.580Z,4.35
2022-10-10T10:16:37.307Z,4.38
2022-10-10T10:19:07.501Z,7.55
2022-10-10T10:21:49.873Z,5.80
2022-10-10T10:24:24.541Z,4.88
2022-10-10T10:26:53.819Z,4.57
2022-10-10T10:29:27.879Z,4.75
2022-10-10T10:32:25.596Z,6.65
2022-10-10T10:34:56.598Z,5.80
2022-10-10T10:37:28.118Z,5.68
2022-10-10T10:40:20.685Z,4.95
2022-10-10T10:43:04.751Z,4.38
2022-10-10T10:45:37.642Z,4.28
2022-10-10T10:48:29.160Z,3.92
2022-10-10T10:51:15.956Z,6.78
2022-10-10T10:54:21.020Z,5.95
2022-10-10T10:57:45.383Z,9.02
2022-10-10T11:01:17.232Z,6.60
2022-10-10T11:05:17.480Z,7.82
2022-10-10T11:06:28.187Z,4.05
2022-10-10T11:09:48.298Z,4.80
2022-10-10T11:12:45.513Z,3.95
2022-10-10T11:15:16.503Z,4.65
2022-10-10T11:18:01.455Z,4.78
2022-10-10T11:20:31.879Z,5.50
2022-10-10T11:23:09.063Z,5.43
2022-10-10T11:26:02.075Z,3.78
2022-10-10T11:28:47.151Z,4.55
2022-10-10T11:31:41.840Z,5.72
2022-10-10T11:34:23.174Z,4.93
2022-10-10T11:36:51.621Z,4.47
2022-10-10T11:39:46.830Z,4.28
2022-10-10T11:42:18.743Z,3.63
2022-10-10T11:45:05.134Z,4.25
2022-10-10T11:47:48.315Z,4.55
2022-10-10T11:50:41.036Z,4.82
2022-10-10T11:53:23.076Z,4.90
2022-10-10T11:55:58.044Z,4.35
2022-10-10T11:58:34.090Z,5.00
2022-10-10T12:01:31.013Z,4.18
2022-10-10T12:03:59.327Z,5.78
2022-10-10T12:06:29.622Z,5.93
2022-10-10T12:09:23.983Z,5.32
2022-10-10T12:12:01.133Z,6.68
2022-10-10T12:14:31.522Z,5.05
2022-10-10T12:16:59.992Z,5.53
2022-10-10T12:19:29.302Z,5.25
2022-10-10T12:22:18.921Z,5.28
2022-10-10T12:25:05.729Z,5.45
2022-10-10T12:27:45.277Z,6.13
2022-10-10T12:30:22.030Z,4.22
2022-10-10T12:32:53.110Z,4.88
2022-10-10T12:35:31.299Z,5.97
2022-10-10T12:38:15.975Z,4.88
2022-10-10T12:41:16.633Z,4.80
2022-10-10T12:44:18.985Z,5.13
2022-10-10T12:46:50.704Z,4.25
2022-10-10T12:49:21.423Z,3.97
2022-10-10T12:52:39.200Z,7.90
2022-10-10T12:55:26.776Z,4.40
2022-10-10T12:58:04.650Z,4.47
2022-10-10T13:00:42.910Z,5.15
2022-10-10T13:03:18.266Z,6.47
2022-10-10T13:05:47.177Z,4.20
2022-10-10T13:08:20.240Z,4.18
2022-10-10T13:11:08.631Z,4.70
2022-10-10T13:13:36.976Z,7.30
2022-10-10T13:16:07.992Z,4.40
2022-10-10T13:18:40.607Z,5.35
2022-10-10T13:21:11.252Z,4.50
2022-10-10T13:26:52.637Z,7.15
2022-10-10T13:29:24.041Z,3.92
2022-10-10T13:31:53.425Z,4.78
2022-10-10T13:34:27.220Z,5.85
2022-10-10T13:36:57.050Z,3.42
2022-10-10T13:39:25.562Z,5.22
2022-10-10T13:41:55.140Z,4.82
2022-10-10T13:44:34.479Z,5.68
2022-10-10T13:47:41.362Z,3.97
2022-10-10T13:50:23.152Z,3.80
2022-10-10T13:52:52.109Z,4.60
2022-10-10T13:55:27.399Z,4.82
2022-10-10T13:58:00.813Z,4.25
2022-10-10T14:00:33.133Z,6.03
2022-10-10T14:03:01.480Z,4.55
2022-10-10T14:05:31.298Z,4.43
2022-10-10T14:08:00.710Z,6.72
2022-10-10T14:10:29.218Z,4.40
2022-10-10T14:12:59.618Z,4.95
2022-10-10T14:15:37.074Z,3.95
2022-10-10T14:18:15.205Z,4.68
2022-10-10T14:20:44.529Z,4.78
2022-10-10T14:23:13.246Z,8.45
2022-10-10T14:25:42.881Z,8.05
2022-10-10T14:28:21.064Z,5.43
2022-10-10T14:30:49.595Z,5.10
2022-10-10T14:33:18.741Z,4.00
2022-10-10T14:35:47.780Z,6.32
2022-10-10T14:38:16.462Z,6.15
2022-10-10T14:40:46.418Z,5.78
2022-10-10T14:43:14.835Z,7.68
2022-10-10T14:45:44.037Z,8.13
2022-10-10T14:48:12.436Z,7.93
2022-10-10T14:50:44.491Z,7.30
2022-10-10T14:53:13.276Z,5.75
2022-10-10T14:55:43.821Z,60.95
2022-10-10T14:58:20.311Z,28.35
2022-10-10T15:00:48.819Z,9.48
2022-10-10T15:03:17.284Z,7.32
2022-10-10T15:05:45.689Z,16.50
2022-10-10T15:08:15.060Z,12.45
2022-10-10T15:10:43.469Z,6.70
2022-10-10T15:13:12.186Z,5.38
2022-10-10T15:15:40.698Z,5.35
2022-10-10T15:18:25.575Z,5.65
2022-10-10T15:20:57.635Z,7.90
2022-10-10T15:23:27.346Z,8.57
2022-10-10T15:25:59.369Z,7.40
2022-10-10T15:28:27.768Z,5.53
2022-10-10T15:30:56.189Z,5.38
2022-10-10T15:33:24.678Z,7.15
2022-10-10T15:36:08.965Z,8.07
2022-10-10T15:38:38.192Z,5.35
2022-10-10T15:41:09.273Z,7.78
2022-10-10T15:43:54.552Z,6.97
2022-10-10T15:46:26.843Z,7.22
2022-10-10T15:48:55.774Z,7.13
2022-10-10T15:51:24.202Z,7.68
2022-10-10T15:53:52.809Z,5.47
2022-10-10T15:56:21.174Z,11.23
2022-10-10T15:58:49.561Z,11.05
2022-10-10T16:01:19.828Z,7.60
2022-10-10T16:03:48.752Z,10.48
2022-10-10T16:06:18.497Z,6.13
2022-10-10T16:08:55.730Z,5.78
2022-10-10T16:11:30.481Z,5.25
2022-10-10T16:14:00.044Z,5.57
2022-10-10T16:16:28.765Z,6.85
2022-10-10T16:18:57.152Z,5.70
2022-10-10T16:21:25.894Z,4.32
2022-10-10T16:23:57.894Z,6.68
2022-10-10T16:26:32.615Z,5.03
2022-10-10T16:29:01.430Z,5.50
2022-10-10T16:31:30.277Z,5.15
2022-10-10T16:33:59.096Z,6.95
2022-10-10T16:36:29.132Z,10.70
2022-10-10T16:38:58.229Z,7.35
2022-10-10T16:41:46.928Z,10.75
2022-10-10T16:44:19.258Z,6.97
2022-10-10T16:46:47.664Z,6.35
2022-10-10T16:49:21.057Z,5.47
2022-10-10T16:51:49.999Z,6.32
2022-10-10T16:54:18.448Z,5.35
2022-10-10T16:56:46.899Z,9.40
2022-10-10T16:59:15.365Z,15.60
2022-10-10T17:01:44.663Z,11.77
2022-10-10T17:04:14.268Z,12.70
2022-10-10T17:06:43.588Z,11.23
2022-10-10T17:09:12.048Z,8.93
2022-10-10T17:11:41.289Z,9.07
2022-10-10T17:14:09.790Z,9.13
2022-10-10T17:19:28.652Z,18.35
2022-10-10T17:21:57.107Z,18.17
2022-10-10T17:24:25.774Z,22.97
2022-10-10T17:26:54.354Z,15.87
2022-10-10T17:29:24.069Z,12.90
2022-10-10T17:31:52.578Z,7.47
2022-10-10T17:34:21.018Z,7.43
2022-10-10T17:36:49.538Z,6.60
2022-10-10T17:39:18.233Z,6.97
2022-10-10T17:41:49.468Z,7.80
2022-10-10T17:44:18.089Z,8.80
2022-10-10T17:46:46.577Z,6.60
2022-10-10T17:49:15.000Z,6.60
2022-10-10T17:51:43.508Z,7.20
2022-10-10T17:54:13.797Z,8.07
2022-10-10T17:56:44.846Z,9.93
2022-10-10T17:59:13.443Z,11.67
2022-10-10T18:01:42.765Z,9.23
2022-10-10T18:04:13.514Z,11.30
2022-10-10T18:06:42.101Z,12.00
2022-10-10T18:09:10.983Z,13.27
2022-10-10T18:11:39.482Z,13.93
2022-10-10T18:14:08.074Z,12.60
2022-10-10T18:16:36.683Z,16.40
2022-10-10T18:19:08.124Z,14.83
2022-10-10T18:21:36.607Z,15.13
2022-10-10T18:24:05.327Z,14.60
2022-10-10T18:26:35.285Z,16.33
2022-10-10T18:29:04.123Z,16.47
2022-10-10T18:31:34.326Z,12.80
2022-10-10T18:34:02.812Z,9.70
2022-10-10T18:36:32.492Z,10.97
2022-10-10T18:39:02.336Z,10.33
2022-10-10T18:41:34.799Z,15.90
2022-10-10T18:44:04.645Z,16.00
2022-10-10T18:46:33.148Z,11.53
2022-10-10T18:49:02.615Z,12.53
2022-10-10T18:51:31.334Z,10.70
2022-10-10T18:54:06.118Z,11.43
2022-10-10T18:56:36.876Z,10.60
2022-10-10T18:59:06.565Z,10.83
2022-10-10T19:01:36.763Z,12.53
2022-10-10T19:04:05.891Z,12.53
2022-10-10T19:06:36.280Z,26.60
2022-10-10T19:09:06.331Z,15.37
2022-10-10T19:11:36.793Z,13.43
2022-10-10T19:14:06.104Z,8.77
2022-10-10T19:16:34.642Z,9.83
2022-10-10T19:19:03.962Z,8.87
2022-10-10T19:21:36.470Z,7.40
2022-10-10T19:24:06.047Z,6.30
2022-10-10T19:26:36.861Z,8.47
2022-10-10T19:29:07.477Z,9.07
2022-10-10T19:31:37.363Z,10.47
2022-10-10T19:34:05.956Z,9.70
2022-10-10T19:36:37.238Z,12.23
2022-10-10T19:39:08.537Z,10.03
2022-10-10T19:41:36.927Z,11.13
2022-10-10T19:44:06.017Z,9.13
2022-10-10T19:46:37.092Z,7.23
2022-10-10T19:49:06.258Z,6.80
2022-10-10T19:51:34.701Z,7.53
2022-10-10T19:54:03.366Z,11.47
2022-10-10T19:56:31.690Z,8.63
2022-10-10T19:59:01.543Z,10.83
2022-10-10T20:01:31.039Z,7.90
2022-10-10T20:04:00.514Z,8.97
2022-10-10T20:06:28.979Z,6.80
2022-10-10T20:08:57.317Z,9.27
2022-10-10T20:11:26.653Z,7.10
2022-10-10T20:13:56.135Z,6.33
2022-10-10T20:16:26.349Z,9.40
2022-10-10T20:18:55.113Z,8.67
2022-10-10T20:21:33.435Z,6.87
2022-10-10T20:24:06.200Z,8.70
2022-10-10T20:26:34.852Z,6.97
2022-10-10T20:29:03.634Z,9.80
2022-10-10T20:31:33.534Z,9.97
2022-10-10T20:34:02.502Z,8.67
2022-10-10T20:36:31.859Z,8.50
2022-10-10T20:39:05.300Z,11.87
2022-10-10T20:41:34.256Z,10.53
2022-10-10T20:44:04.827Z,8.97
2022-10-10T20:46:35.111Z,9.50
2022-10-10T20:49:05.043Z,8.87
2022-10-10T20:51:33.501Z,10.70
2022-10-10T20:54:03.071Z,25.20
2022-10-10T20:56:31.891Z,12.30
2022-10-10T20:59:00.628Z,10.67
2022-10-10T21:01:29.731Z,9.17
2022-10-10T21:03:58.993Z,8.63
2022-10-10T21:06:29.171Z,10.73
2022-10-10T21:08:59.807Z,12.87
2022-10-10T21:11:28.339Z,9.40
2022-10-10T21:13:57.905Z,10.23
2022-10-10T21:16:31.482Z,8.73
2022-10-10T21:19:00.156Z,9.70
2022-10-10T21:21:31.120Z,8.60
2022-10-10T21:23:59.767Z,7.40
2022-10-10T21:26:28.954Z,10.10
2022-10-10T21:28:58.174Z,11.67
2022-10-10T21:31:28.107Z,12.60
2022-10-10T21:33:56.678Z,9.73
2022-10-10T21:36:26.224Z,8.27
2022-10-10T21:38:56.181Z,9.60
2022-10-10T21:41:24.531Z,9.67
2022-10-10T21:43:57.570Z,8.90
2022-10-10T21:46:34.963Z,7.60
2022-10-10T21:49:09.747Z,7.90
2022-10-10T21:51:40.547Z,8.27
2022-10-10T21:54:09.465Z,9.57
2022-10-10T21:56:37.914Z,9.67
2022-10-10T21:59:06.325Z,13.13
2022-10-10T22:01:37.843Z,13.33
2022-10-10T22:04:06.530Z,8.80
2022-10-10T22:06:35.022Z,9.93
2022-10-10T22:09:03.372Z,9.60
2022-10-10T22:11:33.209Z,7.80
2022-10-10T22:14:02.854Z,12.53
2022-10-10T22:16:32.740Z,7.50
2022-10-10T22:19:01.955Z,9.53
2022-10-10T22:21:35.095Z,6.23
2022-10-10T22:24:05.348Z,7.40
2022-10-10T22:26:35.472Z,8.57
2022-10-10T22:29:04.252Z,8.70
2022-10-10T22:31:35.914Z,8.70
2022-10-10T22:34:07.340Z,9.40
2022-10-10T22:36:35.914Z,8.50
2022-10-10T22:39:04.730Z,7.27
2022-10-10T22:41:33.901Z,7.43
2022-10-10T22:44:03.474Z,8.87
2022-10-10T22:46:31.915Z,8.23
2022-10-10T22:49:00.630Z,9.80
2022-10-10T22:51:29.777Z,7.53
2022-10-10T22:53:59.033Z,10.30
2022-10-10T22:56:28.181Z,10.97
2022-10-10T22:58:57.400Z,7.77
2022-10-10T23:01:26.144Z,10.57
2022-10-10T23:03:56.361Z,9.93
2022-10-10T23:06:24.819Z,12.63
2022-10-10T23:08:53.199Z,7.37
2022-10-10T23:11:21.595Z,12.10
2022-10-10T23:13:49.947Z,9.97
2022-10-10T23:16:18.556Z,6.33
2022-10-10T23:18:46.960Z,7.27
2022-10-10T23:21:15.311Z,11.30
2022-10-10T23:23:43.787Z,10.80
2022-10-10T23:26:12.163Z,9.23
2022-10-10T23:28:42.256Z,15.37
2022-10-10T23:31:10.723Z,21.30
2022-10-10T23:33:40.893Z,13.27
2022-10-10T23:36:11.942Z,10.30
2022-10-10T23:38:41.620Z,11.70
2022-10-10T23:41:10.517Z,14.13
2022-10-10T23:43:38.961Z,11.23
2022-10-10T23:46:08.019Z,9.97
2022-10-10T23:48:37.135Z,9.37
2022-10-10T23:51:05.641Z,11.93
2022-10-10T23:53:35.196Z,10.13
2022-10-10T23:56:03.982Z,11.23
2022-10-10T23:58:32.599Z,11.03
